Aviation Digital Data Service (ADDS)

Output produced by METARs form (1311 UTC 15 July 2020)
found at http://www.aviationweather.gov/metar/data/
 
Forecast for: HECA (CAIRO INTL AIRPO, EG)
Text: TAF HECA 151100Z 1512/1618 34009KT CAVOK
Forecast period: 1200 UTC 15 July 2020 to 1800 UTC 16 July 2020
Forecast type: FROM: standard forecast or significant change
Winds: from the NNW (340 degrees) at 10 MPH (9 knots; 4.6 m/s)
Visibility: 6 or more miles 10+ km)
Ceiling: unknown
Clouds: missing
Weather: NSW  (no significant weather)
Text: TEMPO 1602/1606 4000 BR NSC
Forecast period: 0200 to 0600 UTC 16 July 2020
Forecast type: TEMPORARY: The following changes expected for less than half the time period
Visibility: 2.49 miles (4.01 km)
Ceiling: unknown
Clouds: missing
Weather: BR  (mist)